Terminal Aerodrome Forecast
Issued by NWS

Home | Current Version | Previous Version | Text Only | Print | Product List | Glossary On
Versions: 1 2 3 4 5 6 7 8 9 10 11 12 13 14 15 16 17 18 19 20 21 22 23 24 25 26 27 28 29 30 31 32 33
000
FTUS41 KOKX 251127
TAFSWF
TAF
KSWF 251127Z 2512/2618 08013KT 6SM -RA BR SCT007 BKN010
     FM251400 09014G20KT 3SM -RA BR OVC006
     FM251900 09011KT 2SM -SHRA BR OVC004
     FM260400 06008KT 2SM -SHRA BR OVC004 PROB30 2604/2606 -TSRA
      OVC006CB
     FM260600 VRB04KT 2SM -SHRA BR OVC004
     FM261400 30014KT 6SM -SHRA BKN015
      AMD NOT SKED=

USA.gov is the U.S. government's official web portal to all federal, state and local government web resources and services.